createdAt,value
2023-09-23T00:01:36.020Z,17.77
2023-09-23T00:04:02.749Z,15.68
2023-09-23T00:06:29.487Z,11.95
2023-09-23T00:08:56.072Z,13.65
2023-09-23T00:11:22.592Z,14.45
2023-09-23T00:13:49.108Z,13.60
2023-09-23T00:16:15.942Z,12.00
2023-09-23T00:18:43.636Z,16.05
2023-09-23T00:21:10.252Z,13.25
2023-09-23T00:23:36.845Z,16.73
2023-09-23T00:26:04.425Z,19.27
2023-09-23T00:28:30.965Z,16.20
2023-09-23T00:30:57.729Z,16.48
2023-09-23T00:33:24.312Z,16.58
2023-09-23T00:35:50.825Z,17.23
2023-09-23T00:38:17.465Z,14.77
2023-09-23T00:40:43.934Z,16.15
2023-09-23T00:43:10.409Z,13.75
2023-09-23T00:45:36.985Z,17.98
2023-09-23T00:48:03.607Z,13.93
2023-09-23T00:50:30.182Z,16.27
2023-09-23T00:52:56.874Z,17.05
2023-09-23T00:55:23.476Z,16.35
2023-09-23T00:57:49.999Z,16.70
2023-09-23T01:00:16.673Z,21.55
2023-09-23T01:02:43.408Z,15.40
2023-09-23T01:05:10.031Z,14.75
2023-09-23T01:07:36.701Z,18.92
2023-09-23T01:10:03.394Z,13.07
2023-09-23T01:12:30.005Z,12.15
2023-09-23T01:14:56.636Z,15.35
2023-09-23T01:17:23.136Z,13.85
2023-09-23T01:19:49.737Z,14.40
2023-09-23T01:22:16.349Z,16.30
2023-09-23T01:24:43.075Z,20.85
2023-09-23T01:27:09.570Z,15.93
2023-09-23T01:29:36.173Z,16.30
2023-09-23T01:32:02.706Z,15.13
2023-09-23T01:34:29.183Z,16.05
2023-09-23T01:36:55.727Z,14.02
2023-09-23T01:39:22.218Z,14.00
2023-09-23T01:41:48.769Z,17.45
2023-09-23T01:44:15.363Z,17.85
2023-09-23T01:46:41.974Z,13.15
2023-09-23T01:49:08.500Z,15.77
2023-09-23T01:51:35.121Z,15.75
2023-09-23T01:54:01.713Z,17.80
2023-09-23T01:56:28.225Z,14.48
2023-09-23T01:58:54.813Z,12.80
2023-09-23T02:01:21.350Z,12.68
2023-09-23T02:03:47.972Z,13.10
2023-09-23T02:06:14.637Z,15.38
2023-09-23T02:08:41.223Z,14.43
2023-09-23T02:11:07.751Z,19.05
2023-09-23T02:13:34.413Z,11.88
2023-09-23T02:16:00.967Z,16.77
2023-09-23T02:18:27.730Z,21.40
2023-09-23T02:20:54.560Z,14.48
2023-09-23T02:23:21.274Z,17.38
2023-09-23T02:25:47.825Z,17.98
2023-09-23T02:28:14.447Z,11.18
2023-09-23T02:30:40.969Z,14.82
2023-09-23T02:33:07.626Z,13.68
2023-09-23T02:35:34.249Z,16.05
2023-09-23T02:38:00.740Z,17.52
2023-09-23T02:40:27.247Z,14.13
2023-09-23T02:42:54.008Z,16.42
2023-09-23T02:45:20.828Z,15.35
2023-09-23T02:47:47.568Z,13.27
2023-09-23T02:50:14.788Z,17.25
2023-09-23T02:52:41.663Z,12.68
2023-09-23T02:55:08.343Z,11.88
2023-09-23T02:57:34.960Z,12.68
2023-09-23T03:00:01.458Z,13.25
2023-09-23T03:02:30.562Z,13.57
2023-09-23T03:04:57.422Z,14.10
2023-09-23T03:07:23.977Z,17.40
2023-09-23T03:09:50.458Z,12.52
2023-09-23T03:12:17.006Z,14.77
2023-09-23T03:14:43.544Z,14.57
2023-09-23T03:17:10.285Z,16.00
2023-09-23T03:19:36.873Z,13.57
2023-09-23T03:22:03.626Z,14.70
2023-09-23T03:24:30.151Z,13.65
2023-09-23T03:26:57.305Z,14.68
2023-09-23T03:29:23.907Z,17.98
2023-09-23T03:31:50.574Z,16.55
2023-09-23T03:34:17.187Z,16.90
2023-09-23T03:36:43.692Z,20.38
2023-09-23T03:39:10.225Z,14.10
2023-09-23T03:41:36.834Z,15.77
2023-09-23T03:44:03.374Z,15.27
2023-09-23T03:46:29.919Z,16.13
2023-09-23T03:48:56.568Z,14.38
2023-09-23T03:51:23.093Z,20.85
2023-09-23T03:53:49.584Z,16.23
2023-09-23T03:56:16.174Z,14.60
2023-09-23T03:58:42.685Z,13.10
2023-09-23T04:01:09.228Z,12.70
2023-09-23T04:03:35.816Z,13.45
2023-09-23T04:06:02.331Z,14.27
2023-09-23T04:08:28.916Z,15.48
2023-09-23T04:10:55.853Z,14.65
2023-09-23T04:13:22.526Z,13.48
2023-09-23T04:15:49.093Z,13.93
2023-09-23T04:18:15.668Z,16.25
2023-09-23T04:20:42.271Z,19.25
2023-09-23T04:23:08.828Z,16.27
2023-09-23T04:25:35.450Z,16.95
2023-09-23T04:28:02.026Z,17.45
2023-09-23T04:30:29.001Z,16.95
2023-09-23T04:32:55.637Z,14.60
2023-09-23T04:35:22.720Z,13.90
2023-09-23T04:37:49.439Z,13.40
2023-09-23T04:40:16.521Z,14.82
2023-09-23T04:42:43.747Z,16.23
2023-09-23T04:45:10.314Z,16.80
2023-09-23T04:47:36.856Z,17.27
2023-09-23T04:50:03.391Z,18.42
2023-09-23T04:52:30.545Z,17.33
2023-09-23T04:54:57.127Z,16.20
2023-09-23T04:57:23.641Z,14.85
2023-09-23T04:59:50.120Z,19.60
2023-09-23T05:02:16.844Z,17.17
2023-09-23T05:04:43.523Z,13.55
2023-09-23T05:07:10.037Z,18.58
2023-09-23T05:09:36.587Z,17.48
2023-09-23T05:12:04.224Z,15.40
2023-09-23T05:14:30.783Z,14.88
2023-09-23T05:16:57.368Z,13.65
2023-09-23T05:19:23.872Z,14.88
2023-09-23T05:21:51.991Z,19.23
2023-09-23T05:24:18.621Z,16.42
2023-09-23T05:26:45.120Z,15.80
2023-09-23T05:29:11.771Z,13.63
2023-09-23T05:31:38.360Z,18.35
2023-09-23T05:34:04.869Z,20.75
2023-09-23T05:36:31.395Z,14.82
2023-09-23T05:38:58.002Z,13.98
2023-09-23T05:41:24.512Z,21.48
2023-09-23T05:43:51.032Z,17.85
2023-09-23T05:46:17.711Z,14.18
2023-09-23T05:48:46.044Z,15.88
2023-09-23T05:51:14.142Z,16.52
2023-09-23T05:53:40.691Z,15.18
2023-09-23T05:56:07.226Z,14.07
2023-09-23T05:58:33.784Z,14.15
2023-09-23T06:01:00.430Z,21.02
2023-09-23T06:03:27.003Z,14.07
2023-09-23T06:05:53.567Z,16.33
2023-09-23T06:08:20.284Z,17.80
2023-09-23T06:10:46.838Z,16.98
2023-09-23T06:13:13.411Z,17.70
2023-09-23T06:15:40.185Z,14.23
2023-09-23T06:18:07.530Z,13.90
2023-09-23T06:20:34.668Z,13.30
2023-09-23T06:23:02.202Z,18.05
2023-09-23T06:25:28.958Z,12.55
2023-09-23T06:27:55.831Z,14.02
2023-09-23T06:30:22.612Z,19.40
2023-09-23T06:32:49.632Z,15.23
2023-09-23T06:35:16.262Z,15.52
2023-09-23T06:37:42.885Z,16.85
2023-09-23T06:40:09.461Z,51.60
2023-09-23T06:42:36.151Z,15.45
2023-09-23T06:45:03.197Z,16.67
2023-09-23T06:47:30.594Z,12.32
2023-09-23T06:49:57.276Z,14.15
2023-09-23T06:52:23.893Z,12.40
2023-09-23T06:54:50.559Z,11.32
2023-09-23T06:57:18.133Z,14.98
2023-09-23T06:59:45.492Z,14.27
2023-09-23T07:02:12.456Z,14.30
2023-09-23T07:04:39.025Z,16.70
2023-09-23T07:07:05.619Z,15.52
2023-09-23T07:09:32.169Z,11.60
2023-09-23T07:11:58.804Z,37.22
2023-09-23T07:14:25.486Z,13.80
2023-09-23T07:16:52.195Z,18.33
2023-09-23T07:19:18.812Z,17.55
2023-09-23T07:21:45.404Z,16.98
2023-09-23T07:24:13.817Z,27.38
2023-09-23T07:26:40.866Z,14.00
2023-09-23T07:29:07.494Z,16.58
2023-09-23T07:31:34.172Z,17.17
2023-09-23T07:34:00.706Z,20.05
2023-09-23T07:36:27.341Z,15.82
2023-09-23T07:38:53.809Z,15.63
2023-09-23T07:41:20.429Z,13.82
2023-09-23T07:43:47.217Z,19.40
2023-09-23T07:46:13.837Z,14.20
2023-09-23T07:48:40.382Z,11.57
2023-09-23T07:51:06.975Z,12.15
2023-09-23T07:53:33.474Z,15.75
2023-09-23T07:56:00.078Z,13.75
2023-09-23T07:58:26.700Z,11.80
2023-09-23T08:00:53.237Z,11.48
2023-09-23T08:03:19.913Z,11.40
2023-09-23T08:05:46.609Z,13.75
2023-09-23T08:08:13.172Z,12.88
2023-09-23T08:10:39.730Z,12.30
2023-09-23T08:13:06.311Z,11.82
2023-09-23T08:15:32.857Z,11.25
2023-09-23T08:17:59.412Z,10.20
2023-09-23T08:20:26.083Z,10.80
2023-09-23T08:22:52.744Z,9.52
2023-09-23T08:25:19.353Z,10.48
2023-09-23T08:27:46.264Z,11.55
2023-09-23T08:30:12.758Z,9.55
2023-09-23T08:32:39.342Z,20.38
2023-09-23T08:35:06.195Z,20.60
2023-09-23T08:37:32.747Z,13.48
2023-09-23T08:39:59.262Z,11.10
2023-09-23T08:42:25.952Z,12.68
2023-09-23T08:44:52.461Z,12.18
2023-09-23T08:47:19.037Z,9.45
2023-09-23T08:49:45.842Z,10.60
2023-09-23T08:52:12.310Z,13.75
2023-09-23T08:54:38.793Z,9.48
2023-09-23T08:57:05.397Z,9.68
2023-09-23T08:59:31.939Z,16.55
2023-09-23T09:01:58.488Z,7.82
2023-09-23T09:04:25.178Z,10.15
2023-09-23T09:06:51.640Z,9.95
2023-09-23T09:09:18.368Z,8.50
2023-09-23T09:11:45.079Z,8.98
2023-09-23T09:14:11.666Z,9.18
2023-09-23T09:16:38.227Z,8.45
2023-09-23T09:19:04.885Z,10.68
2023-09-23T09:21:31.414Z,12.73
2023-09-23T09:23:57.894Z,9.88
2023-09-23T09:26:24.555Z,8.65
2023-09-23T09:28:51.135Z,8.63
2023-09-23T09:31:17.681Z,7.53
2023-09-23T09:33:44.464Z,8.32
2023-09-23T09:36:10.921Z,7.15
2023-09-23T09:38:37.457Z,9.15
2023-09-23T09:41:04.223Z,14.32
2023-09-23T09:43:31.075Z,7.78
2023-09-23T09:45:57.617Z,7.97
2023-09-23T09:48:24.255Z,8.82
2023-09-23T09:50:50.798Z,21.83
2023-09-23T09:53:17.428Z,9.80
2023-09-23T09:55:44.086Z,7.70
2023-09-23T09:58:10.540Z,6.57
2023-09-23T10:00:37.088Z,6.93
2023-09-23T10:03:03.896Z,6.75
2023-09-23T10:05:30.597Z,7.28
2023-09-23T10:07:57.206Z,7.00
2023-09-23T10:10:23.828Z,7.45
2023-09-23T10:12:50.316Z,5.22
2023-09-23T10:15:16.795Z,5.93
2023-09-23T10:17:43.359Z,7.78
2023-09-23T10:20:09.979Z,7.40
2023-09-23T10:22:36.574Z,14.13
2023-09-23T10:25:03.174Z,14.02
2023-09-23T10:27:32.711Z,10.13
2023-09-23T10:29:59.401Z,9.85
2023-09-23T10:32:26.163Z,6.95
2023-09-23T10:34:53.379Z,11.15
2023-09-23T10:37:20.078Z,8.85
2023-09-23T10:39:46.676Z,7.68
2023-09-23T10:42:13.381Z,9.20
2023-09-23T10:44:40.013Z,9.00
2023-09-23T10:47:06.722Z,6.65
2023-09-23T10:49:33.213Z,7.32
2023-09-23T10:51:59.744Z,8.82
2023-09-23T10:54:26.360Z,12.77
2023-09-23T10:56:52.881Z,6.35
2023-09-23T10:59:19.465Z,7.57
2023-09-23T11:01:46.155Z,9.77
2023-09-23T11:04:12.714Z,9.50
2023-09-23T11:06:39.257Z,6.20
2023-09-23T11:09:05.818Z,6.47
2023-09-23T11:11:32.428Z,6.93
2023-09-23T11:13:58.981Z,7.60
2023-09-23T11:16:25.844Z,8.48
2023-09-23T11:18:52.403Z,12.75
2023-09-23T11:21:19.067Z,8.10
2023-09-23T11:23:45.624Z,10.43
2023-09-23T11:26:12.168Z,6.38
2023-09-23T11:28:38.761Z,7.18
2023-09-23T11:31:05.319Z,7.70
2023-09-23T11:33:31.888Z,9.48
2023-09-23T11:35:58.502Z,8.05
2023-09-23T11:38:25.394Z,7.03
2023-09-23T11:40:52.038Z,10.50
2023-09-23T11:43:18.543Z,8.43
2023-09-23T11:45:45.302Z,13.65
2023-09-23T11:48:12.022Z,7.93
2023-09-23T11:50:38.780Z,7.78
2023-09-23T11:53:05.453Z,13.55
2023-09-23T11:55:31.980Z,10.93
2023-09-23T11:57:58.456Z,13.15
2023-09-23T12:00:25.020Z,9.23
2023-09-23T12:02:51.670Z,6.82
2023-09-23T12:05:18.497Z,6.20
2023-09-23T12:07:45.336Z,10.18
2023-09-23T12:10:12.258Z,7.97
2023-09-23T12:12:38.781Z,9.57
2023-09-23T12:15:05.347Z,14.07
2023-09-23T12:17:32.332Z,13.40
2023-09-23T12:19:59.229Z,4.97
2023-09-23T12:22:25.958Z,7.70
2023-09-23T12:24:52.469Z,10.02
2023-09-23T12:27:18.936Z,6.82
2023-09-23T12:29:45.665Z,7.20
2023-09-23T12:32:12.163Z,10.18
2023-09-23T12:34:38.837Z,6.13
2023-09-23T12:37:05.626Z,13.60
2023-09-23T12:39:32.177Z,8.05
2023-09-23T12:41:58.686Z,10.50
2023-09-23T12:44:25.304Z,5.65
2023-09-23T12:46:51.796Z,5.80
2023-09-23T12:49:18.290Z,9.55
2023-09-23T12:51:44.857Z,4.40
2023-09-23T12:54:11.598Z,11.43
2023-09-23T12:56:38.592Z,6.75
2023-09-23T12:59:06.163Z,11.57
2023-09-23T13:01:32.745Z,8.48
2023-09-23T13:03:59.388Z,4.78
2023-09-23T13:06:26.102Z,15.07
2023-09-23T13:08:52.619Z,4.93
2023-09-23T13:11:19.150Z,7.45
2023-09-23T13:13:51.181Z,5.22
2023-09-23T13:16:18.804Z,4.68
2023-09-23T13:18:45.865Z,7.93
2023-09-23T13:21:12.692Z,8.27
2023-09-23T13:23:39.275Z,5.45
2023-09-23T13:26:06.476Z,6.53
2023-09-23T13:28:34.002Z,5.65
2023-09-23T13:31:00.652Z,5.18
2023-09-23T13:33:27.375Z,7.13
2023-09-23T13:35:54.037Z,6.13
2023-09-23T13:38:20.796Z,5.22
2023-09-23T13:40:47.361Z,6.38
2023-09-23T13:43:13.959Z,7.95
2023-09-23T13:45:41.742Z,8.65
2023-09-23T13:48:08.689Z,4.93
2023-09-23T13:50:35.870Z,6.47
2023-09-23T13:53:02.516Z,9.45
2023-09-23T13:55:29.019Z,5.22
2023-09-23T13:57:55.612Z,6.97
2023-09-23T14:00:22.167Z,9.32
2023-09-23T14:02:48.809Z,11.27
2023-09-23T14:05:15.459Z,8.05
2023-09-23T14:07:42.025Z,9.02
2023-09-23T14:10:20.501Z,7.40
2023-09-23T14:12:48.264Z,7.55
2023-09-23T14:15:14.735Z,7.55
2023-09-23T14:17:41.380Z,6.68
2023-09-23T14:20:08.074Z,6.97
2023-09-23T14:22:34.746Z,9.55
2023-09-23T14:25:01.362Z,6.20
2023-09-23T14:27:28.445Z,10.02
2023-09-23T14:29:55.012Z,8.13
2023-09-23T14:32:21.616Z,8.02
2023-09-23T14:34:48.233Z,6.82
2023-09-23T14:37:14.705Z,16.48
2023-09-23T14:39:41.254Z,8.30
2023-09-23T14:42:07.839Z,12.00
2023-09-23T14:44:34.346Z,5.47
2023-09-23T14:47:00.853Z,8.77
2023-09-23T14:49:27.523Z,8.30
2023-09-23T14:51:53.997Z,9.10
2023-09-23T14:54:20.620Z,8.68
2023-09-23T14:56:47.176Z,10.65
2023-09-23T14:59:13.765Z,11.32
2023-09-23T15:01:40.306Z,12.85
2023-09-23T15:04:07.025Z,8.93
2023-09-23T15:06:33.604Z,10.07
2023-09-23T15:09:01.523Z,9.70
2023-09-23T15:11:28.816Z,11.85
2023-09-23T15:13:55.594Z,14.45
2023-09-23T15:16:22.400Z,9.73
2023-09-23T15:18:49.227Z,15.52
2023-09-23T15:21:16.931Z,15.32
2023-09-23T15:23:43.462Z,14.85
2023-09-23T15:26:10.106Z,13.57
2023-09-23T15:28:36.641Z,15.60
2023-09-23T15:31:03.221Z,16.73
2023-09-23T15:33:29.880Z,21.27
2023-09-23T15:35:56.409Z,21.25
2023-09-23T15:38:22.984Z,15.88
2023-09-23T15:40:49.697Z,16.98
2023-09-23T15:43:16.183Z,18.88
2023-09-23T15:45:42.693Z,16.85
2023-09-23T15:48:09.548Z,21.27
2023-09-23T15:50:36.207Z,16.98
2023-09-23T15:53:02.849Z,25.35
2023-09-23T15:55:29.841Z,17.90
2023-09-23T15:57:56.365Z,19.73
2023-09-23T16:00:22.994Z,20.08
2023-09-23T16:02:49.721Z,19.75
2023-09-23T16:05:16.506Z,18.13
2023-09-23T16:07:43.025Z,23.75
2023-09-23T16:10:09.611Z,23.38
2023-09-23T16:12:36.107Z,24.52
2023-09-23T16:15:02.582Z,22.48
2023-09-23T16:17:31.484Z,25.08
2023-09-23T16:19:58.032Z,28.83
2023-09-23T16:22:24.528Z,28.35
2023-09-23T16:24:51.101Z,25.80
2023-09-23T16:27:17.612Z,32.05
2023-09-23T16:29:44.132Z,26.88
2023-09-23T16:32:10.895Z,32.17
2023-09-23T16:34:37.555Z,47.80
2023-09-23T16:37:04.148Z,36.78
2023-09-23T16:39:30.754Z,36.72
2023-09-23T16:41:57.471Z,29.83
2023-09-23T16:44:24.078Z,25.50
2023-09-23T16:46:50.770Z,33.45
2023-09-23T16:49:17.339Z,36.78
2023-09-23T16:51:43.802Z,27.40
2023-09-23T16:54:10.489Z,37.08
2023-09-23T16:56:37.036Z,26.90
2023-09-23T16:59:03.750Z,30.73
2023-09-23T17:01:30.343Z,31.23
2023-09-23T17:03:57.083Z,28.90
2023-09-23T17:06:25.237Z,31.92
2023-09-23T17:08:52.489Z,32.58
2023-09-23T17:11:20.229Z,28.65
2023-09-23T17:13:47.163Z,41.92
2023-09-23T17:16:13.946Z,37.88
2023-09-23T17:18:40.596Z,35.90
2023-09-23T17:21:07.154Z,38.28
2023-09-23T17:23:33.880Z,33.58
2023-09-23T17:26:00.435Z,27.67
2023-09-23T17:28:27.027Z,29.42
2023-09-23T17:30:53.689Z,29.80
2023-09-23T17:33:20.410Z,34.70
2023-09-23T17:35:47.127Z,31.65
2023-09-23T17:38:13.824Z,51.63
2023-09-23T17:40:40.334Z,28.15
2023-09-23T17:43:06.914Z,33.47
2023-09-23T17:45:33.463Z,30.20
2023-09-23T17:48:00.052Z,27.20
2023-09-23T17:50:26.665Z,26.58
2023-09-23T17:52:53.831Z,29.58
2023-09-23T17:55:20.525Z,25.35
2023-09-23T17:57:47.144Z,31.38
2023-09-23T18:00:13.873Z,36.80
2023-09-23T18:02:40.595Z,28.35
2023-09-23T18:05:07.380Z,31.80
2023-09-23T18:07:34.096Z,32.17
2023-09-23T18:10:00.609Z,31.45
2023-09-23T18:12:27.144Z,30.10
2023-09-23T18:14:53.694Z,35.65
2023-09-23T18:17:20.295Z,33.47
2023-09-23T18:19:46.885Z,34.58
2023-09-23T18:22:13.510Z,28.10
2023-09-23T18:24:40.112Z,32.47
2023-09-23T18:27:06.659Z,55.63
2023-09-23T18:29:33.310Z,31.40
2023-09-23T18:31:59.797Z,30.38
2023-09-23T18:34:26.290Z,29.50
2023-09-23T18:36:52.982Z,27.02
2023-09-23T18:39:19.505Z,27.85
2023-09-23T18:41:46.073Z,31.70
2023-09-23T18:44:12.755Z,34.17
2023-09-23T18:46:39.238Z,30.25
2023-09-23T18:49:05.803Z,33.38
2023-09-23T18:51:33.043Z,31.75
2023-09-23T18:53:59.612Z,36.17
2023-09-23T18:56:26.142Z,26.30
2023-09-23T18:58:52.738Z,28.50
2023-09-23T19:01:19.359Z,25.95
2023-09-23T19:03:46.178Z,29.92
2023-09-23T19:06:13.027Z,32.72
2023-09-23T19:08:39.523Z,28.17
2023-09-23T19:11:06.079Z,24.58
2023-09-23T19:13:32.783Z,23.13
2023-09-23T19:15:59.346Z,27.52
2023-09-23T19:18:25.872Z,26.83
2023-09-23T19:20:52.538Z,23.02
2023-09-23T19:23:19.080Z,29.08
2023-09-23T19:25:45.652Z,26.40
2023-09-23T19:28:12.275Z,18.25
2023-09-23T19:30:38.805Z,21.00
2023-09-23T19:33:07.160Z,25.80
2023-09-23T19:35:33.818Z,21.58
2023-09-23T19:38:00.342Z,19.08
2023-09-23T19:40:26.936Z,20.13
2023-09-23T19:42:53.646Z,22.73
2023-09-23T19:45:20.198Z,22.42
2023-09-23T19:47:46.868Z,18.95
2023-09-23T19:50:13.572Z,23.67
2023-09-23T19:52:40.173Z,24.27
2023-09-23T19:55:06.739Z,21.90
2023-09-23T19:57:33.345Z,22.70
2023-09-23T19:59:59.928Z,19.13
2023-09-23T20:02:26.535Z,19.65
2023-09-23T20:04:53.314Z,24.73
2023-09-23T20:07:19.859Z,22.92
2023-09-23T20:09:46.334Z,25.25
2023-09-23T20:12:13.000Z,18.23
2023-09-23T20:14:39.634Z,23.48
2023-09-23T20:17:06.252Z,26.52
2023-09-23T20:19:33.420Z,23.60
2023-09-23T20:22:00.003Z,18.77
2023-09-23T20:24:26.490Z,21.73
2023-09-23T20:26:53.098Z,21.63
2023-09-23T20:29:19.721Z,23.88
2023-09-23T20:31:46.212Z,23.73
2023-09-23T20:34:12.780Z,28.05
2023-09-23T20:36:39.270Z,29.42
2023-09-23T20:39:05.806Z,29.83
2023-09-23T20:41:32.477Z,25.52
2023-09-23T20:43:59.079Z,30.67
2023-09-23T20:46:25.668Z,29.60
2023-09-23T20:48:52.290Z,32.08
2023-09-23T20:51:18.909Z,32.05
2023-09-23T20:53:45.739Z,29.48
2023-09-23T20:56:12.684Z,29.45
2023-09-23T20:58:39.171Z,32.00
2023-09-23T21:01:05.776Z,28.40
2023-09-23T21:03:32.496Z,27.50
2023-09-23T21:05:59.078Z,22.92
2023-09-23T21:08:25.657Z,22.33
2023-09-23T21:10:52.276Z,18.50
2023-09-23T21:13:18.818Z,24.30
2023-09-23T21:15:45.366Z,24.85
2023-09-23T21:18:12.081Z,22.42
2023-09-23T21:20:38.668Z,17.05
2023-09-23T21:23:05.278Z,21.33
2023-09-23T21:25:31.948Z,17.63
2023-09-23T21:27:58.525Z,17.42
2023-09-23T21:30:25.080Z,17.42
2023-09-23T21:32:51.715Z,16.80
2023-09-23T21:35:18.329Z,19.67
2023-09-23T21:37:44.945Z,19.75
2023-09-23T21:40:11.650Z,14.52
2023-09-23T21:42:38.186Z,16.30
2023-09-23T21:45:04.655Z,11.82
2023-09-23T21:47:32.368Z,18.45
2023-09-23T21:49:58.970Z,16.50
2023-09-23T21:52:25.563Z,15.82
2023-09-23T21:54:52.163Z,16.50
2023-09-23T21:57:18.753Z,16.27
2023-09-23T21:59:45.375Z,14.35
2023-09-23T22:02:11.999Z,12.52
2023-09-23T22:04:38.745Z,14.07
2023-09-23T22:07:05.345Z,11.23
2023-09-23T22:09:31.960Z,15.23
2023-09-23T22:11:58.480Z,11.57
2023-09-23T22:14:25.076Z,13.73
2023-09-23T22:16:51.680Z,14.00
2023-09-23T22:19:18.197Z,13.40
2023-09-23T22:21:44.727Z,15.98
2023-09-23T22:24:11.292Z,13.48
2023-09-23T22:26:37.985Z,13.65
2023-09-23T22:29:04.685Z,14.73
2023-09-23T22:31:31.258Z,13.35
2023-09-23T22:33:57.915Z,13.05
2023-09-23T22:36:24.550Z,16.17
2023-09-23T22:38:51.382Z,10.60
2023-09-23T22:41:17.951Z,14.77
2023-09-23T22:43:44.591Z,11.55
2023-09-23T22:46:11.280Z,15.25
2023-09-23T22:48:37.862Z,13.45
2023-09-23T22:51:04.396Z,18.52
2023-09-23T22:53:31.035Z,10.45
2023-09-23T22:55:57.547Z,10.30
2023-09-23T22:58:24.039Z,11.85
2023-09-23T23:00:50.659Z,11.07
2023-09-23T23:03:17.211Z,11.20
2023-09-23T23:05:43.950Z,10.73
2023-09-23T23:08:10.710Z,12.63
2023-09-23T23:10:37.205Z,11.25
2023-09-23T23:13:03.688Z,12.80
2023-09-23T23:15:30.307Z,11.50
2023-09-23T23:17:56.919Z,11.98
2023-09-23T23:20:23.871Z,13.55
2023-09-23T23:22:51.408Z,12.20
2023-09-23T23:25:17.925Z,13.15
2023-09-23T23:27:46.115Z,12.38
2023-09-23T23:30:12.689Z,10.48
2023-09-23T23:32:39.196Z,10.00
2023-09-23T23:35:05.812Z,16.17
2023-09-23T23:37:32.591Z,9.50
2023-09-23T23:39:59.052Z,13.10
2023-09-23T23:42:25.572Z,9.55
2023-09-23T23:44:52.180Z,10.73
2023-09-23T23:47:19.346Z,10.02
2023-09-23T23:49:45.900Z,9.65
2023-09-23T23:52:12.468Z,12.23
2023-09-23T23:54:38.996Z,12.75
2023-09-23T23:57:05.791Z,8.43
2023-09-23T23:59:32.460Z,11.60
